Map

Track Data

SID SEASON NUMBER BASIN SUBBASIN NAME ISO_TIME NATURE LAT LON WMO_WIND WMO_PRES WMO_AGENCY TRACK_TYPE DIST2LAND LANDFALL IFLAG USA_AGENCY USA_ATCF_ID USA_LAT USA_LON USA_RECORD USA_STATUS USA_WIND USA_PRES USA_SSHS USA_R34_NE USA_R34_SE USA_R34_SW USA_R34_NW USA_R50_NE USA_R50_SE USA_R50_SW USA_R50_NW USA_R64_NE USA_R64_SE USA_R64_SW USA_R64_NW USA_POCI USA_ROCI USA_RMW USA_EYE TOKYO_LAT TOKYO_LON TOKYO_GRADE TOKYO_WIND TOKYO_PRES TOKYO_R50_DIR TOKYO_R50_LONG TOKYO_R50_SHORT TOKYO_R30_DIR TOKYO_R30_LONG TOKYO_R30_SHORT TOKYO_LAND CMA_LAT CMA_LON CMA_CAT CMA_WIND CMA_PRES HKO_LAT HKO_LON HKO_CAT HKO_WIND HKO_PRES NEWDELHI_LAT NEWDELHI_LON NEWDELHI_GRADE NEWDELHI_WIND NEWDELHI_PRES NEWDELHI_CI NEWDELHI_DP NEWDELHI_POCI REUNION_LAT REUNION_LON REUNION_TYPE REUNION_WIND REUNION_PRES REUNION_TNUM REUNION_CI REUNION_RMW REUNION_R34_NE REUNION_R34_SE REUNION_R34_SW REUNION_R34_NW REUNION_R50_NE REUNION_R50_SE REUNION_R50_SW REUNION_R50_NW REUNION_R64_NE REUNION_R64_SE REUNION_R64_SW REUNION_R64_NW BOM_LAT BOM_LON BOM_TYPE BOM_WIND BOM_PRES BOM_TNUM BOM_CI BOM_RMW BOM_R34_NE BOM_R34_SE BOM_R34_SW BOM_R34_NW BOM_R50_NE BOM_R50_SE BOM_R50_SW BOM_R50_NW BOM_R64_NE BOM_R64_SE BOM_R64_SW BOM_R64_NW BOM_ROCI BOM_POCI BOM_EYE BOM_POS_METHOD BOM_PRES_METHOD NADI_LAT NADI_LON NADI_CAT NADI_WIND NADI_PRES WELLINGTON_LAT WELLINGTON_LON WELLINGTON_WIND WELLINGTON_PRES DS824_LAT DS824_LON DS824_STAGE DS824_WIND DS824_PRES TD9636_LAT TD9636_LON TD9636_STAGE TD9636_WIND TD9636_PRES TD9635_LAT TD9635_LON TD9635_WIND TD9635_PRES TD9635_ROCI NEUMANN_LAT NEUMANN_LON NEUMANN_CLASS NEUMANN_WIND NEUMANN_PRES MLC_LAT MLC_LON MLC_CLASS MLC_WIND MLC_PRES USA_GUST BOM_GUST BOM_GUST_PER REUNION_GUST REUNION_GUST_PER USA_SEAHGT USA_SEARAD_NE USA_SEARAD_SE USA_SEARAD_SW USA_SEARAD_NW STORM_SPEED STORM_DIR
1983212N06151 1983 40 WP MM ABBY 1983-07-31 00:00:00 NR 6.00000 151.000 main 975 975 __________O___ -1 6.00000 151.000 0 6 314
1983212N06151 1983 40 WP MM ABBY 1983-07-31 03:00:00 NR 6.19822 150.793 main 997 997 __________P___ -1 6.19822 150.793 0 6 313
1983212N06151 1983 40 WP MM ABBY 1983-07-31 06:00:00 NR 6.39538 150.582 main 1016 1012 __________P___ -1 6.39538 150.582 0 6 313
1983212N06151 1983 40 WP MM ABBY 1983-07-31 09:00:00 NR 6.59049 150.362 main 1030 1026 __________P___ -1 6.59049 150.362 0 6 311
1983212N06151 1983 40 WP MM ABBY 1983-07-31 12:00:00 NR 6.78254 150.130 main 1041 1041 __________P___ -1 6.78254 150.130 0 6 309
1983212N06151 1983 40 WP MM ABBY 1983-07-31 15:00:00 NR 6.97053 149.882 main 1056 1054 __________P___ -1 6.97053 149.882 0 6 306
1983212N06151 1983 40 WP MM ABBY 1983-07-31 18:00:00 NR 7.15346 149.614 main 1070 1067 __________P___ -1 7.15346 149.614 0 7 303
1983212N06151 1983 40 WP MM ABBY 1983-07-31 21:00:00 NR 7.33029 149.321 main 1074 1074 __________P___ -1 7.33029 149.321 0 7 300
1983212N06151 1983 40 WP MM ABBY 1983-08-01 00:00:00 NR 7.50000 149.000 main 1090 1088 __________O___ -1 7.50000 149.000 0 7 296
1983212N06151 1983 40 WP MM ABBY 1983-08-01 03:00:00 NR 7.65862 148.649 main 1106 1103 __________P___ -1 7.65862 148.649 0 8 292
1983212N06151 1983 40 WP MM ABBY 1983-08-01 06:00:00 NR 7.79051 148.275 main 1113 1112 __________P___ -1 7.79051 148.275 0 8 286
1983212N06151 1983 40 WP MM ABBY 1983-08-01 09:00:00 NR 7.87713 147.888 main 1121 1120 __________P___ -1 7.87713 147.888 0 8 278
1983212N06151 1983 40 WP MM ABBY 1983-08-01 12:00:00 NR 7.90000 147.500 main 1120 1109 __________O___ -1 7.90000 147.500 0 8 267
1983212N06151 1983 40 WP MM ABBY 1983-08-01 15:00:00 NR 7.83580 147.060 main 1109 1098 __________P___ -1 7.83580 147.060 0 9 258
1983212N06151 1983 40 WP MM ABBY 1983-08-01 18:00:00 NR 7.71026 146.630 main 1098 1087 __________P___ -1 7.71026 146.630 0 8 250
1983212N06151 1983 40 WP MM ABBY 1983-08-01 21:00:00 NR 7.55454 146.260 main 1087 1066 __________P___ -1 7.55454 146.260 0 7 244
1983212N06151 1983 40 WP MM ABBY 1983-08-02 00:00:00 NR 7.40000 146.000 main 1066 1045 __________O___ -1 7.40000 146.000 0 5 226
1983212N06151 1983 40 WP MM ABBY 1983-08-02 03:00:00 NR 7.23576 145.930 main 1045 1033 __________P___ -1 7.23576 145.930 0 3 185
1983212N06151 1983 40 WP MM ABBY 1983-08-02 06:00:00 NR 7.08732 145.968 main 1033 1021 __________P___ -1 7.08732 145.968 0 3 155
1983212N06151 1983 40 WP MM ABBY 1983-08-02 09:00:00 NR 6.99522 146.046 main 1021 1021 __________P___ -1 6.99522 146.046 0 2 123
1983212N06151 1983 40 WP MM ABBY 1983-08-02 12:00:00 NR 7.00000 146.100 main 1021 1021 __________O___ -1 7.00000 146.100 0 2 0
1983212N06151 1983 40 WP MM ABBY 1983-08-02 15:00:00 NR 7.16963 146.064 main 1043 1043 __________P___ -1 7.16963 146.064 0 4 346
1983212N06151 1983 40 WP MM ABBY 1983-08-02 18:00:00 NR 7.43240 145.990 main 1066 1066 __________P___ -1 7.43240 145.990 0 6 341
1983212N06151 1983 40 WP MM ABBY 1983-08-02 21:00:00 NR 7.72898 145.871 main 1100 1100 __________P___ -1 7.72898 145.871 0 6 333
1983212N06151 1983 40 WP MM ABBY 1983-08-03 00:00:00 NR 8.00000 145.700 main 1136 1136 __________O___ -1 8.00000 145.700 0 6 319
1983212N06151 1983 40 WP MM ABBY 1983-08-03 03:00:00 NR 8.17723 145.479 main 1160 1160 __________P___ -1 8.17723 145.479 0 6 303
1983212N06151 1983 40 WP MM ABBY 1983-08-03 06:00:00 NR 8.31755 145.210 main 1175 1175 __________P___ -1 8.31755 145.210 0 6 294
1983212N06151 1983 40 WP MM ABBY 1983-08-03 09:00:00 NR 8.42409 144.911 main 1191 1191 __________P___ -1 8.42409 144.911 0 6 287
1983212N06151 1983 40 WP MM ABBY 1983-08-03 12:00:00 NR 8.50000 144.600 main 1208 1208 __________O___ -1 8.50000 144.600 0 6 282
1983212N06151 1983 40 WP MM ABBY 1983-08-03 15:00:00 NR 8.55366 144.315 main 1225 1225 __________P___ -1 8.55366 144.315 0 6 278
1983212N06151 1983 40 WP MM ABBY 1983-08-03 18:00:00 NR 8.57987 144.022 main 1233 1233 __________P___ -1 8.57987 144.022 0 6 274
1983212N06151 1983 40 WP MM ABBY 1983-08-03 21:00:00 NR 8.59114 143.718 main 1241 1241 __________P___ -1 8.59114 143.718 0 3 282
1983212N06151 1983 40 WP MM ABBY 1983-08-04 00:00:00 TS 8.65000 143.683 1008 tokyo main 1252 1252 _OO_______O___ -1 9.00000 144.000 2 1008 0 0 0 8.50000 144.500 0 19 1008 8.60000 143.400 0 3 287
1983212N06151 1983 40 WP MM ABBY 1983-08-04 03:00:00 TS 8.68333 143.408 main 1261 1261 _PP_______P___ -1 9.00007 143.510 2 1007 0 0 8.50763 144.000 0 21 1007 8.61280 143.060 0 6 275
1983212N06151 1983 40 WP MM ABBY 1983-08-04 06:00:00 TS 8.70100 143.033 1006 tokyo main 1269 1253 _OO_______P___ -1 9.00000 143.000 2 1006 0 0 0 8.50000 143.500 1 23 1006 8.62749 142.707 0 8 272
1983212N06151 1983 40 WP MM ABBY 1983-08-04 09:00:00 TS 8.71030 142.607 main 1253 1236 _PP_______P___ -1 9.00004 142.470 2 1006 0 0 8.47744 143.000 1 23 1006 8.65342 142.351 0 9 272
1983212N06151 1983 40 WP MM ABBY 1983-08-04 12:00:00 TS 8.73333 142.167 1006 tokyo main 1236 1228 _OO_______O___ -1 9.00000 142.000 2 1006 0 0 0 8.50000 142.500 1 23 1006 8.70000 142.000 0 8 276
1983212N06151 1983 40 WP MM ABBY 1983-08-04 15:00:00 TS 8.79308 141.768 main 1231 1224 _PP_______P___ -1 8.98489 141.670 2 1006 0 0 8.61999 141.985 1 23 1005 8.77437 141.648 0 8 282
1983212N06151 1983 40 WP MM ABBY 1983-08-04 18:00:00 TS 8.89847 141.394 1006 tokyo main 1228 1222 _OOO______P___ -1 9.00000 141.400 2 1006 0 0 0 8.80000 141.500 1 23 1004 9.00000 141.300 TD 25 1004 8.87002 141.305 0 8 289
1983212N06151 1983 40 WP MM ABBY 1983-08-04 21:00:00 TS 9.03520 141.037 main 1227 1227 _PPP______P___ -1 9.08501 141.085 2 1005 0 0 9.00750 141.048 1 26 1004 9.10007 141.025 TD 27 1004 8.98065 140.985 0 7 293
1983212N06151 1983 40 WP MM ABBY 1983-08-05 00:00:00 TS 9.16875 140.744 1004 tokyo main 1240 1235 OOOO______O___ jtwc_wp WP051983 9.10000 140.700 30 -1 9.20000 140.800 2 1004 0 0 0 9.20000 140.700 1 29 1004 9.20000 140.800 TD 30 1004 9.10000 140.700 1 30 5 297
1983212N06151 1983 40 WP MM ABBY 1983-08-05 03:00:00 TS 9.27185 140.567 main 1245 1236 PPPP______P___ WP051983 9.18996 140.642 30 -1 9.29996 140.585 2 1001 0 0 9.31491 140.520 1 29 1002 9.29995 140.650 TD 30 1003 9.21354 140.476 1 30 4 302
1983212N06151 1983 40 WP MM ABBY 1983-08-05 06:00:00 TS 9.37047 140.413 35 998 tokyo main 1247 1242 OOOO______P___ jtwc_wp WP051983 9.30000 140.500 30 -1 9.40000 140.400 3 35 998 0 9 150 150 0 9.40000 140.400 1 29 1000 9.40000 140.500 TD 30 1002 9.33472 140.285 1 30 4 300
1983212N06151 1983 40 WP MM ABBY 1983-08-05 09:00:00 TS 9.47821 140.204 main 1248 1244 PPPP______P___ WP051983 9.44255 140.223 30 -1 9.49246 140.215 3 35 998 0 9 100 100 9.49999 140.215 1 33 999 9.49251 140.265 TD 32 1001 9.46355 140.101 1 30 5 297
1983212N06151 1983 40 WP MM ABBY 1983-08-05 12:00:00 TS 9.60000 139.960 35 998 tokyo main 1250 1246 OOOO______O___ jtwc_wp WP051983 9.60000 139.900 30 -1 9.60000 140.000 3 35 998 0 9 50 50 0 9.60000 140.000 2 38 998 9.60000 140.000 TS 35 1000 9.60000 139.900 1 30 5 297
1983212N06151 1983 40 WP MM ABBY 1983-08-05 15:00:00 TS 9.72290 139.710 main 1249 1249 PPPP______P___ WP051983 9.74995 139.650 32 -1 9.73501 139.715 3 35 997 0 9 65 65 9.70000 139.757 2 38 998 9.72745 139.765 TS 37 999 9.70211 139.662 1 31 6 297
1983212N06151 1983 40 WP MM ABBY 1983-08-05 18:00:00 TS 9.86347 139.440 35 996 tokyo main 1260 1256 OOOO______P___ jtwc_wp WP051983 9.90000 139.400 35 0 9.90000 139.400 3 35 996 0 9 80 80 0 9.80000 139.500 2 38 998 9.90000 139.500 TS 40 999 9.81737 139.402 1 32 6 297
1983212N06151 1983 40 WP MM ABBY 1983-08-05 21:00:00 TS 10.0033 139.155 main 1263 1260 PPPP______P___ WP051983 10.0125 139.115 35 -1 10.0625 139.107 3 37 996 0 9 80 80 9.83990 139.280 2 38 996 10.1275 139.158 TS 40 997 9.97394 139.115 1 33 7 301
1983212N06151 1983 40 WP MM ABBY 1983-08-06 00:00:00 TS 10.2200 138.840 40 996 tokyo main 1271 1271 OOOO______O___ jtwc_wp WP051983 10.2000 138.800 35 0 10.3000 138.800 3 40 996 0 9 80 80 0 10.0000 139.000 2 38 995 10.4000 138.800 TS 40 996 10.2000 138.800 2 35 9 312
1983212N06151 1983 40 WP MM ABBY 1983-08-06 03:00:00 TS 10.5853 138.491 main 1306 1306 PPPP______P___ WP051983 10.5625 138.465 40 -1 10.6775 138.458 3 40 993 0 9 80 80 10.4551 138.558 2 38 992 10.6774 138.507 TS 42 993 10.5539 138.469 2 40 11 318
1983212N06151 1983 40 WP MM ABBY 1983-08-06 06:00:00 TS 11.0145 138.122 40 990 tokyo main 1315 1290 OOOO______P___ jtwc_wp WP051983 11.0000 138.100 45 0 11.1000 138.100 3 40 990 0 9 80 80 0 11.0000 138.100 2 38 990 11.0000 138.200 TS 45 991 10.9726 138.108 2 45 11 319
1983212N06151 1983 40 WP MM ABBY 1983-08-06 09:00:00 TS 11.4275 137.758 main 1292 1257 PPPP______P___ WP051983 11.4149 137.715 50 -1 11.4725 137.750 3 45 987 0 9 90 90 11.4373 137.800 2 43 987 11.4075 137.808 TS 47 988 11.4050 137.718 2 50 11 317
1983212N06151 1983 40 WP MM ABBY 1983-08-06 12:00:00 TS 11.8000 137.380 50 985 tokyo main 1259 1224 OOOO______O___ jtwc_wp WP051983 11.8000 137.300 55 0 11.8000 137.400 4 50 985 0 9 100 100 0 11.8000 137.500 3 48 985 11.8000 137.400 STS 50 985 11.8000 137.300 2 55 10 311
1983212N06151 1983 40 WP MM ABBY 1983-08-06 15:00:00 TS 12.0992 136.970 main 1224 1185 PPPP______P___ WP051983 12.1301 136.835 60 -1 12.0574 137.065 4 57 980 0 9 125 125 12.1101 137.058 3 53 980 12.0724 137.057 STS 52 982 12.1262 136.833 2 60 10 304
1983212N06151 1983 40 WP MM ABBY 1983-08-06 18:00:00 TS 12.3400 136.560 65 975 tokyo main 1185 1145 OOOO______O___ jtwc_wp WP051983 12.4000 136.400 65 1 12.3000 136.700 5 65 975 9 50 50 9 150 150 0 12.3000 136.600 3 58 976 12.3000 136.700 STS 55 980 12.4000 136.400 3 65 9 299
1983212N06151 1983 40 WP MM ABBY 1983-08-06 21:00:00 TS 12.5112 136.196 main 1145 1105 PPPP______P___ WP051983 12.5847 136.115 65 -1 12.5926 136.250 5 67 972 9 50 50 9 137 125 12.2473 136.257 3 58 974 12.5350 136.265 STS 60 975 12.5965 136.092 3 65 8 298
1983212N06151 1983 40 WP MM ABBY 1983-08-07 00:00:00 TS 12.7200 135.820 70 970 tokyo main 1105 1068 OOOO______O___ jtwc_wp WP051983 12.8000 135.800 65 1 12.9000 135.800 5 70 970 9 50 50 1 125 100 0 12.3000 135.900 3 58 972 12.8000 135.800 T 65 970 12.8000 135.800 4 65 10 306
1983212N06151 1983 40 WP MM ABBY 1983-08-07 03:00:00 TS 13.0888 135.371 main 1070 1028 PPPP______P___ WP051983 13.1702 135.265 70 -1 13.1772 135.465 5 75 967 9 50 50 1 125 100 12.8401 135.408 3 63 968 13.1274 135.350 T 67 967 13.1289 135.367 4 71 12 312
1983212N06151 1983 40 WP MM ABBY 1983-08-07 06:00:00 TS 13.5265 134.894 80 965 tokyo main 1028 983 OOOO______P___ jtwc_wp WP051983 13.6000 134.700 75 1 13.5000 135.100 5 80 965 9 50 50 1 125 100 0 13.5000 134.900 4 68 965 13.5000 134.900 T 70 965 13.5326 134.868 4 77 13 313
1983212N06151 1983 40 WP MM ABBY 1983-08-07 09:00:00 TS 13.9560 134.408 main 985 949 PPPP______P___ WP051983 14.0149 134.247 82 -1 13.9503 134.543 5 85 955 9 65 65 1 150 100 13.9449 134.462 4 72 955 13.9000 134.428 T 75 955 13.9699 134.360 4 83 12 313
1983212N06151 1983 40 WP MM ABBY 1983-08-07 12:00:00 TS 14.3600 133.980 90 945 tokyo main 952 927 OOOO______O___ jtwc_wp WP051983 14.4000 133.900 90 2 14.4000 134.000 5 90 945 9 80 80 1 175 100 0 14.3000 134.100 4 77 945 14.3000 134.000 T 80 945 14.4000 133.900 4 90 10 316
1983212N06151 1983 40 WP MM ABBY 1983-08-07 15:00:00 TS 14.6865 133.684 main 930 909 PPPP______P___ WP051983 14.6998 133.692 102 -1 14.7072 133.670 5 95 932 9 90 90 1 187 125 14.5999 133.835 4 87 937 14.6574 133.670 T 87 932 14.7680 133.555 4 100 8 321
1983212N06151 1983 40 WP MM ABBY 1983-08-07 18:00:00 TS 15.0044 133.433 100 920 tokyo main 909 895 OOOO______P___ jtwc_wp WP051983 15.0000 133.500 XX 115 -5 15.0000 133.400 5 100 920 9 100 100 1 200 150 0 14.9000 133.600 5 97 930 15.0000 133.400 ST 95 920 15.1219 133.267 4 110 9 322
1983212N06151 1983 40 WP MM ABBY 1983-08-07 21:00:00 TS 15.3815 133.127 main 895 885 PPPP______P___ WP051983 15.4076 133.150 XX 122 -5 15.3926 133.020 5 100 915 9 100 100 1 200 175 15.2925 133.300 5 106 919 15.3499 133.142 ST 102 915 15.4650 133.020 4 120 10 323
1983212N06151 1983 40 WP MM ABBY 1983-08-08 00:00:00 TS 15.7600 132.840 100 910 tokyo main 884 880 OOOO______O___ jtwc_wp WP051983 15.8000 132.800 XX 130 -5 15.8000 132.700 5 100 910 9 100 100 9 200 200 0 15.7000 133.000 6 116 908 15.7000 132.900 SuperT 110 910 15.8000 132.800 4 130 9 326
1983212N06151 1983 40 WP MM ABBY 1983-08-08 03:00:00 TS 16.0987 132.630 main 881 877 PPPP______P___ WP051983 16.0499 132.577 XX 132 -5 16.1648 132.585 5 100 910 9 100 100 9 200 200 16.0649 132.742 6 116 905 16.0575 132.650 SuperT 115 905 16.1562 132.594 4 132 8 330
1983212N06151 1983 40 WP MM ABBY 1983-08-08 06:00:00 TS 16.4204 132.441 100 910 tokyo main 879 879 OOOO______P___ jtwc_wp WP051983 16.3000 132.400 XX 135 -5 16.5000 132.500 5 100 910 9 100 100 9 200 200 0 16.4000 132.500 6 116 902 16.4000 132.400 SuperT 120 900 16.5021 132.407 4 135 8 330
1983212N06151 1983 40 WP MM ABBY 1983-08-08 09:00:00 TS 16.7624 132.221 main 886 882 PPPP______P___ WP051983 16.7149 132.215 XX 137 -5 16.8300 132.273 5 100 905 9 100 100 9 200 200 16.7224 132.257 6 116 901 16.7225 132.142 SuperT 122 900 16.8219 132.216 4 137 8 325
1983212N06151 1983 40 WP MM ABBY 1983-08-08 12:00:00 TS 17.0600 131.980 100 900 tokyo main 888 864 OOOO______O___ jtwc_wp WP051983 17.1000 132.000 XX 140 -5 17.1000 132.000 5 100 900 9 100 100 9 200 200 0 17.0000 132.000 6 116 900 17.0000 131.900 SuperT 125 900 17.1000 132.000 4 140 7 316
1983212N06151 1983 40 WP MM ABBY 1983-08-08 15:00:00 TS 17.2570 131.714 main 869 855 PPPP______P___ WP051983 17.2800 131.715 XX 142 -5 17.2649 131.765 5 105 897 9 100 100 9 200 200 17.2150 131.692 6 121 894 17.2149 131.700 SuperT 125 895 17.3103 131.700 4 141 6 304
1983212N06151 1983 40 WP MM ABBY 1983-08-08 18:00:00 TS 17.4161 131.435 110 895 tokyo main 845 832 OOOO______P___ jtwc_wp WP051983 17.4000 131.400 XX 145 -5 17.4000 131.500 5 110 895 9 100 100 9 200 200 0 17.4000 131.400 6 126 888 17.4000 131.500 SuperT 125 890 17.4804 131.377 4 142 7 302
1983212N06151 1983 40 WP MM ABBY 1983-08-08 21:00:00 TS 17.6056 131.135 main 828 815 PPPP______P___ WP051983 17.6001 131.063 XX 145 -5 17.5927 131.128 5 115 895 9 100 100 9 225 225 17.5999 131.177 6 126 890 17.6000 131.243 SuperT 125 890 17.6353 131.066 4 143 7 306
1983212N06151 1983 40 WP MM ABBY 1983-08-09 00:00:00 TS 17.8000 130.880 120 895 tokyo main 821 811 OOOO______O___ jtwc_wp WP051983 17.8000 130.800 XX 145 -5 17.8000 130.800 5 120 895 9 100 100 9 250 250 0 17.8000 131.000 6 126 893 17.8000 131.000 SuperT 125 890 17.8000 130.800 4 145 5 315
1983212N06151 1983 40 WP MM ABBY 1983-08-09 03:00:00 TS 17.9908 130.729 main 815 815 PPPP______P___ WP051983 17.9349 130.735 XX 140 -5 17.9999 130.655 5 120 897 9 100 100 9 250 250 18.0000 130.827 6 126 896 17.9925 130.827 SuperT 125 895 18.0267 130.600 4 140 5 329
1983212N06151 1983 40 WP MM ABBY 1983-08-09 06:00:00 TS 18.1930 130.631 120 900 tokyo main 818 818 OOOO______P___ jtwc_wp WP051983 18.1000 130.700 XX 135 -5 18.2000 130.600 5 120 900 9 100 100 9 250 250 0 18.2000 130.700 6 126 900 18.2000 130.700 SuperT 125 900 18.2647 130.452 4 135 5 336
1983212N06151 1983 40 WP MM ABBY 1983-08-09 09:00:00 TS 18.4381 130.520 main 823 823 PPPP______P___ WP051983 18.4076 130.485 XX 130 -5 18.4075 130.542 5 115 905 9 100 100 9 250 250 18.4150 130.642 6 121 905 18.4650 130.578 SuperT 122 905 18.4955 130.353 4 130 5 339
1983212N06151 1983 40 WP MM ABBY 1983-08-09 12:00:00 TS 18.6600 130.440 110 910 tokyo main 835 835 OOOO______O___ jtwc_wp WP051983 18.7000 130.300 XX 125 -5 18.6000 130.500 5 110 910 9 100 100 9 250 250 0 18.6000 130.600 6 116 910 18.7000 130.500 SuperT 120 910 18.7000 130.300 4 125 4 343
1983212N06151 1983 40 WP MM ABBY 1983-08-09 15:00:00 TS 18.7926 130.406 main 842 842 PPPP______P___ WP051983 18.8225 130.320 XX 122 -5 18.7575 130.443 5 112 915 9 100 100 9 250 250 18.7075 130.493 6 116 915 18.8300 130.492 SuperT 117 915 18.8456 130.282 4 122 2 349
1983212N06151 1983 40 WP MM ABBY 1983-08-09 18:00:00 TS 18.8930 130.401 115 920 tokyo main 850 850 OOOO______P___ jtwc_wp WP051983 18.9000 130.400 XX 120 -5 18.9000 130.400 5 115 920 9 100 100 9 250 250 0 18.8000 130.400 6 116 920 18.9000 130.500 SuperT 114 920 18.9650 130.305 4 120 2 353
1983212N06151 1983 40 WP MM ABBY 1983-08-09 21:00:00 TS 19.0079 130.397 main 855 855 PPPP______P___ WP051983 19.0425 130.408 XX 120 -5 19.0500 130.392 5 112 922 9 100 100 9 250 250 18.9350 130.385 6 111 922 18.9350 130.450 SuperT 109 922 19.0769 130.350 4 117 2 359
1983212N06151 1983 40 WP MM ABBY 1983-08-10 00:00:00 TS 19.1400 130.400 110 925 tokyo main 856 856 OOOO______O___ jtwc_wp WP051983 19.2000 130.400 XX 120 -5 19.2000 130.400 5 110 925 9 100 100 9 250 250 0 19.1000 130.400 6 106 925 19.0000 130.400 SuperT 105 925 19.2000 130.400 4 115 3 356
1983212N06151 1983 40 WP MM ABBY 1983-08-10 03:00:00 TS 19.3031 130.397 main 858 858 PPPP______P___ WP051983 19.3425 130.393 XX 120 -5 19.3425 130.393 5 110 925 9 112 112 9 250 250 19.2925 130.393 6 106 925 19.1775 130.385 SuperT 105 925 19.3606 130.421 4 115 3 2
1983212N06151 1983 40 WP MM ABBY 1983-08-10 06:00:00 TS 19.4870 130.409 110 925 tokyo main 860 860 OOOO______P___ jtwc_wp WP051983 19.5000 130.400 XX 120 -5 19.5000 130.400 5 110 925 9 125 125 9 250 250 0 19.5000 130.400 6 106 925 19.4000 130.400 SuperT 105 925 19.5350 130.443 4 115 4 8
1983212N06151 1983 40 WP MM ABBY 1983-08-10 09:00:00 TS 19.6909 130.452 main 873 873 PPPP______P___ WP051983 19.7075 130.450 XX 117 -5 19.7075 130.450 5 110 925 9 125 125 9 300 300 19.7150 130.442 6 106 925 19.6075 130.450 SuperT 102 925 19.7169 130.468 4 115 4 13
1983212N06151 1983 40 WP MM ABBY 1983-08-10 12:00:00 TS 19.8800 130.500 110 925 tokyo main 877 877 OOOO______O___ jtwc_wp WP051983 19.9000 130.500 XX 115 -5 19.9000 130.500 5 110 925 9 125 125 9 350 350 0 19.9000 130.500 6 106 925 19.8000 130.500 SuperT 100 925 19.9000 130.500 4 115 3 11
1983212N06151 1983 40 WP MM ABBY 1983-08-10 15:00:00 TS 20.0041 130.517 main 879 879 PPPP______P___ WP051983 19.9925 130.493 XX 112 -5 20.0000 130.493 5 107 927 9 125 125 9 350 350 20.0000 130.550 6 101 927 19.9650 130.500 SuperT 100 927 20.0628 130.551 4 113 3 11
1983212N06151 1983 40 WP MM ABBY 1983-08-10 18:00:00 TS 20.1255 130.541 105 930 tokyo main 881 881 OOOO______P___ jtwc_wp WP051983 20.1000 130.500 XX 110 -5 20.1000 130.500 5 105 930 9 125 125 9 350 350 0 20.1000 130.600 5 97 930 20.1000 130.500 SuperT 100 930 20.2275 130.607 4 112 3 17
1983212N06151 1983 40 WP MM ABBY 1983-08-10 21:00:00 TS 20.2852 130.613 main 896 896 PPPP______P___ WP051983 20.3200 130.592 XX 110 -5 20.2625 130.607 5 102 932 9 125 125 9 350 350 20.2625 130.657 5 97 932 20.1775 130.550 SuperT 100 932 20.4035 130.660 4 111 4 20
1983212N06151 1983 40 WP MM ABBY 1983-08-11 00:00:00 TS 20.5000 130.680 100 935 tokyo main 911 911 OOOO______O___ jtwc_wp WP051983 20.6000 130.700 XX 110 -5 20.5000 130.700 5 100 935 9 125 125 9 350 350 0 20.5000 130.700 5 97 935 20.3000 130.600 SuperT 100 935 20.6000 130.700 4 110 5 9
1983212N06151 1983 40 WP MM ABBY 1983-08-11 03:00:00 TS 20.8005 130.695 main 919 919 PPPP______P___ WP051983 20.9075 130.772 XX 112 -5 20.8500 130.665 5 97 935 9 125 125 9 325 325 20.8500 130.715 5 101 930 20.5625 130.608 SuperT 100 930 20.8325 130.714 4 113 6 0
1983212N06151 1983 40 WP MM ABBY 1983-08-11 06:00:00 TS 21.1170 130.683 95 935 tokyo main 929 929 OOOO______P___ jtwc_wp WP051983 21.2000 130.800 XX 115 -5 21.2000 130.600 5 95 935 9 125 125 9 300 300 0 21.2000 130.700 6 106 925 20.9000 130.600 SuperT 100 925 21.0850 130.715 4 117 6 357
1983212N06151 1983 40 WP MM ABBY 1983-08-11 09:00:00 TS 21.3755 130.663 main 939 933 PPPP______P___ WP051983 21.4150 130.765 XX 117 -5 21.4300 130.592 5 102 927 9 125 125 9 350 275 21.4300 130.650 6 106 922 21.2575 130.600 SuperT 102 922 21.3450 130.708 4 121 5 355
1983212N06151 1983 40 WP MM ABBY 1983-08-11 12:00:00 TS 21.6000 130.640 110 920 tokyo main 937 937 OOOO______O___ jtwc_wp WP051983 21.6000 130.700 XX 120 -5 21.6000 130.600 5 110 920 9 125 125 3 400 250 0 21.6000 130.600 6 106 920 21.6000 130.600 SuperT 105 920 21.6000 130.700 4 125 4 354
1983212N06151 1983 40 WP MM ABBY 1983-08-11 15:00:00 TS 21.7934 130.621 main 938 931 PPPP______P___ WP051983 21.7925 130.635 XX 120 -5 21.7350 130.607 5 110 920 9 125 125 3 400 250 21.7350 130.592 6 106 920 21.8725 130.593 SuperT 107 920 21.8322 130.680 4 123 4 358
1983212N06151 1983 40 WP MM ABBY 1983-08-11 18:00:00 TS 21.9915 130.613 110 920 tokyo main 931 924 OOOO______P___ jtwc_wp WP051983 22.0000 130.600 XX 120 -5 21.9000 130.600 5 110 920 9 125 125 3 400 250 0 21.9000 130.600 6 106 920 22.1000 130.600 SuperT 110 920 22.0574 130.663 4 122 5 0
1983212N06151 1983 40 WP MM ABBY 1983-08-11 21:00:00 TS 22.2413 130.611 main 924 914 PPPP______P___ WP051983 22.2500 130.635 XX 120 -5 22.1925 130.528 5 110 920 9 125 125 3 450 300 22.1850 130.585 6 106 920 22.3000 130.643 SuperT 110 920 22.2790 130.664 4 121 5 0
1983212N06151 1983 40 WP MM ABBY 1983-08-12 00:00:00 TS 22.5000 130.640 110 920 tokyo main 914 914 OOOO______O___ jtwc_wp WP051983 22.5000 130.700 XX 120 -5 22.5000 130.500 5 110 920 9 125 125 3 500 350 0 22.5000 130.600 6 106 920 22.5000 130.700 SuperT 110 920 22.5000 130.700 4 120 5 12
1983212N06151 1983 40 WP MM ABBY 1983-08-12 03:00:00 TS 22.7286 130.712 main 918 904 PPPP______P___ WP051983 22.7000 130.728 XX 120 -5 22.7150 130.620 5 110 917 9 125 125 3 500 350 22.7725 130.685 6 106 920 22.7425 130.743 SuperT 110 920 22.7128 130.785 4 121 5 21
1983212N06151 1983 40 WP MM ABBY 1983-08-12 06:00:00 TS 22.9455 130.821 110 915 tokyo main 904 882 OOOO______P___ jtwc_wp WP051983 22.9000 130.800 XX 120 -5 22.9000 130.800 5 110 915 9 125 125 3 500 350 0 23.0000 130.800 6 106 920 23.0000 130.800 SuperT 110 920 22.9275 130.905 4 122 5 27
1983212N06151 1983 40 WP MM ABBY 1983-08-12 09:00:00 TS 23.1547 130.949 main 871 849 PPPP______P___ WP051983 23.1426 130.985 XX 122 -5 23.0775 130.943 5 110 915 9 125 125 3 500 325 23.1500 130.885 6 106 920 23.2500 130.885 SuperT 110 917 23.1535 131.048 4 123 5 31
1983212N06151 1983 40 WP MM ABBY 1983-08-12 12:00:00 TS 23.3800 131.100 110 915 tokyo main 849 827 OOOO______O___ jtwc_wp WP051983 23.4000 131.200 XX 125 -5 23.3000 131.100 5 110 915 9 125 125 4 500 300 0 23.3000 131.000 6 106 920 23.5000 131.000 SuperT 110 915 23.4000 131.200 4 125 6 30
1983212N06151 1983 40 WP MM ABBY 1983-08-12 15:00:00 TS 23.6454 131.262 main 828 795 PPPP______P___ WP051983 23.6350 131.358 XX 122 -5 23.6350 131.300 5 110 917 9 137 137 4 500 300 23.5200 131.185 6 106 920 23.7425 131.135 SuperT 110 917 23.6946 131.335 4 122 6 29
1983212N06151 1983 40 WP MM ABBY 1983-08-12 18:00:00 TS 23.9415 131.436 110 920 tokyo main 795 753 OOOO______P___ jtwc_wp WP051983 23.9000 131.500 XX 120 -5 24.0000 131.500 5 110 920 9 150 150 4 500 300 0 23.8000 131.400 6 106 920 24.0000 131.300 SuperT 110 920 24.0074 131.477 4 120 7 26
1983212N06151 1983 40 WP MM ABBY 1983-08-12 21:00:00 TS 24.2693 131.602 main 753 722 PPPP______P___ WP051983 24.2650 131.642 XX 117 -5 24.3224 131.650 5 110 922 9 175 175 4 500 300 24.1425 131.607 6 106 920 24.2999 131.478 SuperT 110 922 24.3165 131.632 4 117 7 26
1983212N06151 1983 40 WP MM ABBY 1983-08-13 00:00:00 TS 24.5800 131.780 110 925 tokyo main 722 702 OOOO______O___ jtwc_wp WP051983 24.6000 131.800 XX 115 -5 24.6000 131.800 5 110 925 9 200 200 4 500 300 0 24.5000 131.800 6 106 920 24.6000 131.700 SuperT 110 925 24.6000 131.800 4 115 6 33
1983212N06151 1983 40 WP MM ABBY 1983-08-13 03:00:00 TS 24.8130 131.984 main 703 683 PPPP______P___ WP051983 24.7650 131.993 XX 112 -5 24.8150 131.993 5 105 925 9 200 200 4 500 325 24.8224 131.950 6 101 922 24.8501 131.993 SuperT 107 925 24.8125 131.990 4 113 6 41
1983212N06151 1983 40 WP MM ABBY 1983-08-13 06:00:00 TS 25.0200 132.199 100 925 tokyo main 685 666 OOOO______P___ jtwc_wp WP051983 24.9000 132.200 XX 110 -5 25.0000 132.200 5 100 925 9 200 200 4 500 350 0 25.1000 132.100 5 97 925 25.1000 132.300 SuperT 105 925 25.0001 132.193 4 112 6 42
1983212N06151 1983 40 WP MM ABBY 1983-08-13 09:00:00 TS 25.2430 132.413 main 668 641 PPPP______P___ WP051983 25.1200 132.400 XX 107 -5 25.1925 132.408 5 100 927 9 225 200 4 500 375 25.3075 132.285 5 97 926 25.4075 132.572 SuperT 102 927 25.1875 132.399 4 111 6 40
1983212N06151 1983 40 WP MM ABBY 1983-08-13 12:00:00 TS 25.4800 132.620 100 930 tokyo main 641 626 OOOO______O___ jtwc_wp WP051983 25.4000 132.600 XX 105 -5 25.4000 132.600 5 100 930 3 250 200 3 500 400 0 25.5000 132.500 5 97 928 25.7000 132.800 SuperT 100 930 25.4000 132.600 4 110 6 36
1983212N06151 1983 40 WP MM ABBY 1983-08-13 15:00:00 TS 25.7384 132.818 main 626 601 PPPP______P___ WP051983 25.7500 132.807 XX 105 -5 25.6274 132.750 5 100 932 3 250 200 3 500 400 25.7351 132.757 5 97 931 25.8999 132.973 SuperT 97 932 25.6794 132.802 4 108 6 32
1983212N06151 1983 40 WP MM ABBY 1983-08-13 18:00:00 TS 26.0170 132.999 100 935 tokyo main 601 574 OOOO______P___ jtwc_wp WP051983 26.1000 133.000 XX 105 -5 25.9000 132.900 5 100 935 3 250 200 3 500 400 0 26.0000 133.000 5 97 935 26.1000 133.100 ST 95 935 25.9851 132.995 4 107 7 28
1983212N06151 1983 40 WP MM ABBY 1983-08-13 21:00:00 TS 26.3181 133.166 main 578 552 PPPP______P___ WP051983 26.3575 133.165 XX 107 -5 26.2501 133.107 5 92 937 3 250 200 3 500 400 26.2925 133.180 5 92 937 26.3925 133.215 ST 92 937 26.2982 133.165 4 106 7 24
1983212N06151 1983 40 WP MM ABBY 1983-08-14 00:00:00 TS 26.6200 133.300 85 940 tokyo main 552 527 OOOO______O___ jtwc_wp WP051983 26.6000 133.300 110 -1 26.6000 133.300 5 85 940 3 250 200 3 500 400 0 26.6000 133.300 5 87 940 26.7000 133.300 ST 90 940 26.6000 133.300 4 105 6 19
1983212N06151 1983 40 WP MM ABBY 1983-08-14 03:00:00 TS 26.9026 133.393 main 527 498 PPPP______P___ WP051983 26.9075 133.422 105 -1 26.8650 133.430 5 85 940 3 225 200 3 500 400 26.9150 133.365 5 87 940 26.9575 133.358 ST 87 940 26.8683 133.390 4 103 6 13
1983212N06151 1983 40 WP MM ABBY 1983-08-14 06:00:00 TS 27.1645 133.449 85 940 tokyo main 498 484 OOOO______P___ jtwc_wp WP051983 27.2000 133.500 100 -1 27.1000 133.500 5 85 940 9 200 200 3 500 400 0 27.2000 133.400 5 87 940 27.2000 133.400 ST 85 940 27.1223 133.446 4 102 5 9
1983212N06151 1983 40 WP MM ABBY 1983-08-14 09:00:00 TS 27.3990 133.485 main 484 466 PPPP______P___ WP051983 27.4075 133.515 100 -1 27.3575 133.515 5 85 942 9 200 200 3 500 400 27.4075 133.458 5 87 940 27.4575 133.457 ST 85 942 27.3652 133.478 4 101 5 6
1983212N06151 1983 40 WP MM ABBY 1983-08-14 12:00:00 TS 27.6200 133.500 85 945 tokyo main 466 448 OOOO______O___ jtwc_wp WP051983 27.6000 133.500 100 -1 27.6000 133.500 5 85 945 9 200 200 3 500 400 0 27.6000 133.500 5 87 940 27.7000 133.500 ST 85 945 27.6000 133.500 4 100 5 0
1983212N06151 1983 40 WP MM ABBY 1983-08-14 15:00:00 TS 27.8486 133.499 main 448 420 PPPP______P___ WP051983 27.8500 133.493 97 -1 27.8000 133.493 5 85 947 9 200 200 3 500 400 27.8500 133.500 5 82 945 27.9150 133.500 ST 85 947 27.8280 133.508 4 97 5 0
1983212N06151 1983 40 WP MM ABBY 1983-08-14 18:00:00 TS 28.0700 133.503 85 950 tokyo main 420 400 OOOO______P___ jtwc_wp WP051983 28.1000 133.500 95 -1 28.0000 133.500 5 85 950 9 200 200 3 500 400 0 28.1000 133.500 4 77 950 28.1000 133.500 ST 85 950 28.0498 133.513 4 95 4 3
1983212N06151 1983 40 WP MM ABBY 1983-08-14 21:00:00 TS 28.2668 133.526 main 400 386 PPPP______P___ WP051983 28.2924 133.513 92 -1 28.2425 133.528 5 85 952 9 200 200 3 500 400 28.2925 133.520 4 77 950 28.2350 133.535 ST 85 950 28.2717 133.537 4 92 4 12
1983212N06151 1983 40 WP MM ABBY 1983-08-15 00:00:00 TS 28.4800 133.600 85 955 tokyo main 386 373 OOOO______O___ jtwc_wp WP051983 28.5000 133.600 90 -1 28.5000 133.600 5 85 955 9 200 200 3 500 400 0 28.5000 133.600 4 77 950 28.4000 133.600 ST 85 950 28.5000 133.600 4 90 5 23
1983212N06151 1983 40 WP MM ABBY 1983-08-15 03:00:00 TS 28.7447 133.751 main 379 359 PPPP______P___ WP051983 28.8002 133.842 87 -1 28.7425 133.720 5 85 955 9 187 187 3 475 375 28.7926 133.785 4 77 952 28.6700 133.678 ST 85 952 28.7185 133.728 4 88 6 29
1983212N06151 1983 40 WP MM ABBY 1983-08-15 06:00:00 TS 29.0295 133.940 85 955 tokyo main 359 349 OOOO______P___ jtwc_wp WP051983 29.1000 134.100 85 -1 29.0000 133.900 5 85 955 9 175 175 3 450 350 0 29.1000 134.000 4 77 955 29.0000 133.800 ST 85 955 28.9476 133.898 4 87 6 30
1983212N06151 1983 40 WP MM ABBY 1983-08-15 09:00:00 TS 29.2960 134.110 main 349 341 PPPP______P___ WP051983 29.3073 134.200 85 -1 29.2776 134.150 5 82 955 9 162 162 3 450 325 29.3498 134.128 4 77 955 29.3425 133.978 ST 82 957 29.2029 134.094 4 86 6 30
1983212N06151 1983 40 WP MM ABBY 1983-08-15 12:00:00 TS 29.5800 134.300 80 955 tokyo main 342 337 OOOO______O___ jtwc_wp WP051983 29.5000 134.300 85 -1 29.6000 134.400 5 80 955 9 150 150 3 450 300 0 29.6000 134.300 4 77 955 29.7000 134.200 T 80 960 29.5000 134.300 4 85 7 32
1983212N06151 1983 40 WP MM ABBY 1983-08-15 15:00:00 TS 29.8934 134.531 main 340 322 PPPP______P___ WP051983 29.6976 134.543 82 -1 29.9924 134.558 5 80 957 9 150 150 3 450 300 29.8778 134.650 4 77 957 30.0424 134.435 T 80 960 29.8565 134.469 4 82 8 31
1983212N06151 1983 40 WP MM ABBY 1983-08-15 18:00:00 TS 30.2509 134.770 80 960 tokyo main 317 295 OOOO______P___ jtwc_wp WP051983 30.0000 134.800 80 -1 30.4000 134.700 5 80 960 9 150 150 3 450 300 0 30.2000 135.000 4 77 960 30.4000 134.700 T 80 960 30.2545 134.649 4 80 9 26
1983212N06151 1983 40 WP MM ABBY 1983-08-15 21:00:00 TS 30.6689 134.964 main 288 252 PPPP______P___ WP051983 30.5348 134.935 77 -1 30.7499 134.870 5 75 960 9 150 137 3 450 300 30.5848 135.166 4 72 962 30.8000 134.993 T 75 962 30.6752 134.854 4 77 9 23
1983212N06151 1983 40 WP MM ABBY 1983-08-16 00:00:00 TS 31.1000 135.180 70 960 tokyo main 252 213 OOOO______O___ jtwc_wp WP051983 31.1000 135.100 75 -1 31.1000 135.100 5 70 960 3 150 125 3 450 300 0 31.0000 135.300 4 68 965 31.2000 135.300 T 70 965 31.1000 135.100 4 75 9 29
1983212N06151 1983 40 WP MM ABBY 1983-08-16 03:00:00 TS 31.4807 135.480 main 213 178 PPPP______P___ WP051983 31.4651 135.420 72 -1 31.4926 135.427 5 70 962 3 150 125 3 450 300 31.3999 135.513 4 68 965 31.5575 135.608 T 70 967 31.4884 135.431 4 73 9 36
1983212N06151 1983 40 WP MM ABBY 1983-08-16 06:00:00 TS 31.8557 135.820 70 965 tokyo main 167 136 OOOO______P___ jtwc_wp WP051983 31.8000 135.800 70 -1 31.9000 135.800 5 70 965 3 150 125 3 450 300 0 31.8000 135.800 4 68 965 31.9000 135.900 T 70 970 31.8784 135.799 4 72 10 38
1983212N06151 1983 40 WP MM ABBY 1983-08-16 09:00:00 TS 32.2333 136.167 main 138 105 PPPP______P___ WP051983 32.2200 136.165 70 -1 32.2775 136.165 5 65 967 3 150 112 3 375 250 32.1777 136.193 4 63 967 32.2123 136.143 T 65 970 32.2791 136.168 4 71 10 36
1983212N06151 1983 40 WP MM ABBY 1983-08-16 12:00:00 TS 32.6600 136.500 60 970 tokyo main 101 85 OOOO______O___ jtwc_wp WP051983 32.7000 136.500 70 -1 32.7000 136.500 4 60 970 2 150 100 2 300 200 0 32.6000 136.600 3 58 970 32.6000 136.400 STS 60 970 32.7000 136.500 4 70 11 28
1983212N06151 1983 40 WP MM ABBY 1983-08-16 15:00:00 TS 33.2047 136.786 main 86 67 PPPP______P___ WP051983 33.2574 136.780 70 -1 33.2349 136.773 4 57 970 2 125 75 2 300 175 33.1499 136.923 3 58 970 33.1927 136.764 STS 57 970 33.1886 136.693 4 67 12 22
1983212N06151 1983 40 WP MM ABBY 1983-08-16 18:00:00 TS 33.7586 137.030 55 970 tokyo main 56 28 OOOO______P___ jtwc_wp WP051983 33.8000 137.000 70 -1 33.8000 137.000 4 55 970 2 100 50 2 300 150 0 33.7000 137.200 3 58 970 33.8000 137.100 STS 55 970 33.6929 136.851 4 65 11 19
1983212N06151 1983 40 WP MM ABBY 1983-08-16 21:00:00 TS 34.2369 137.208 main 29 11 PPPP______P___ WP051983 34.2447 137.128 65 -1 34.3672 137.178 4 50 972 2 2 300 225 34.1449 137.458 3 58 970 34.2521 137.244 STS 50 972 34.1758 137.033 4 62 9 20
1983212N06151 1983 40 WP MM ABBY 1983-08-17 00:00:00 TS 34.6200 137.420 45 974 tokyo main 11 0 OOOO______O___ jtwc_wp WP051983 34.6000 137.300 60 -1 34.8000 137.400 3 45 974 0 9 300 300 0 34.5000 137.700 3 58 970 34.6000 137.400 TS 45 975 34.6000 137.300 2 60 8 35
1983212N06151 1983 40 WP MM ABBY 1983-08-17 03:00:00 TS 34.8693 137.745 main 0 0 PPPP______P___ WP051983 34.8722 137.625 57 -1 34.9224 137.756 3 42 976 0 9 300 300 34.7346 137.906 3 58 975 34.8799 137.740 TS 42 977 34.9377 137.696 2 56 8 54
1983212N06151 1983 40 WP MM ABBY 1983-08-17 06:00:00 TS 35.0725 138.184 40 978 tokyo main 0 0 OOOO______P___ jtwc_wp WP051983 35.1000 138.100 55 -1 35.0000 138.200 3 40 978 0 9 300 300 0 35.0000 138.200 3 58 980 35.1000 138.200 TS 40 980 35.2015 138.202 2 52 9 58
1983212N06151 1983 40 WP MM ABBY 1983-08-17 09:00:00 TS 35.3598 138.714 main 0 0 PPPP______P___ WP051983 35.3435 138.711 50 -1 35.3049 138.677 3 40 981 0 9 300 200 35.4929 138.711 3 53 982 35.2624 138.721 TS 40 982 35.4144 138.782 2 48 11 54
1983212N06151 1983 40 WP MM ABBY 1983-08-17 12:00:00 TS 35.7143 139.286 40 984 tokyo main 0 0 OOOO______O___ jtwc_wp WP051983 35.6000 139.400 45 -1 35.7000 139.200 3 40 984 0 2 300 100 0 36.0000 139.300 3 48 985 35.5000 139.300 TS 40 985 35.6000 139.400 2 45 12 50
1983212N06151 1983 40 WP MM ABBY 1983-08-17 15:00:00 TS 36.1157 139.817 main 0 0 _PPP__________ WP051983 -1 36.0847 139.736 3 40 987 0 2 300 100 36.3071 139.802 3 48 987 35.9551 139.914 TS 40 987 2 12 47
1983212N06151 1983 40 WP MM ABBY 1983-08-17 18:00:00 TS 36.5333 140.367 40 990 tokyo main 0 0 _OOO__________ -1 36.5000 140.300 3 40 990 0 2 300 100 0 36.6000 140.300 3 48 990 36.5000 140.500 TS 40 990 2 13 44
1983212N06151 1983 40 WP MM ABBY 1983-08-17 21:00:00 TS 37.0225 140.922 main 0 0 _PPP__________ -1 36.9877 140.922 3 40 991 0 2 300 100 37.0576 140.864 3 48 991 37.0221 140.980 TS 40 991 2 13 42
1983212N06151 1983 40 WP MM ABBY 1983-08-18 00:00:00 TS 37.4667 141.433 40 992 tokyo main 35 35 _OOO__________ -1 37.4000 141.500 3 40 992 0 2 300 100 0 37.5000 141.400 3 48 992 37.5000 141.400 TS 40 992 11 45
1983212N06151 1983 40 WP MM ABBY 1983-08-18 03:00:00 TS 37.7712 141.849 main 61 61 _PPP__________ -1 37.6018 141.916 3 40 992 0 2 325 225 37.8021 141.823 3 43 992 37.9098 141.808 TS 40 993 8 52
1983212N06151 1983 40 WP MM ABBY 1983-08-18 06:00:00 TS 37.9667 142.233 40 992 tokyo main 69 69 _OOO__________ -1 37.7000 142.300 3 40 992 0 9 350 350 0 38.0000 142.200 2 38 992 38.2000 142.200 TS 40 994 7 62
1983212N06151 1983 40 WP MM ABBY 1983-08-18 09:00:00 TS 38.1191 142.664 main 106 106 _PPP__________ -1 37.8226 142.792 3 40 992 0 9 325 325 38.1524 142.600 2 38 993 38.3824 142.600 TS 37 994 7 74
1983212N06151 1983 40 WP MM ABBY 1983-08-18 12:00:00 TS 38.1667 143.100 40 992 tokyo main 139 139 _OOO__________ -1 37.9000 143.300 3 40 992 0 9 300 300 0 38.2000 143.000 2 38 994 38.4000 143.000 TS 35 994 7 92
1983212N06151 1983 40 WP MM ABBY 1983-08-18 15:00:00 TS 38.0992 143.545 main 175 175 _PPP__________ -1 37.9076 143.803 3 40 992 0 9 300 300 38.1524 143.408 2 38 994 38.2376 143.423 TS 35 994 7 107
1983212N06151 1983 40 WP MM ABBY 1983-08-18 18:00:00 TS 37.9667 143.933 40 992 tokyo main 211 211 _OOO__________ -1 37.9000 144.200 3 40 992 0 9 300 300 0 38.0000 143.800 2 38 994 38.0000 143.800 TS 35 994 6 117
1983212N06151 1983 40 WP MM ABBY 1983-08-18 21:00:00 TS 37.8273 144.211 main 242 242 _PPP__________ -1 37.9496 144.380 3 992 0 9 37.6975 144.174 2 38 994 37.8348 144.080 TS 32 993 5 121
1983212N06151 1983 40 WP MM ABBY 1983-08-19 00:00:00 TS 37.7333 144.433 992 tokyo main 262 262 _OOO__________ -1 38.0000 144.500 2 992 0 0 0 37.5000 144.500 2 38 994 37.7000 144.300 TD 30 992 4 95
1983212N06151 1983 40 WP MM ABBY 1983-08-19 03:00:00 TS 37.7907 144.714 main 284 284 _PPP__________ -1 38.0299 144.720 2 991 0 0 37.7496 144.899 2 38 992 37.5925 144.522 TD 30 991 4 75
1983212N06151 1983 40 WP MM ABBY 1983-08-19 06:00:00 TS 37.8333 144.900 990 tokyo main 300 295 _OOO__________ -1 38.0000 145.000 2 990 0 0 0 38.0000 145.000 2 38 990 37.5000 144.700 TD 30 990 1 129
1983212N06151 1983 40 WP MM ABBY 1983-08-19 09:00:00 TS 37.7124 144.832 main 295 295 _PPP__________ -1 37.9027 145.365 2 990 0 0 37.8420 144.325 2 38 990 37.3924 144.807 TD 30 990 3 199
1983212N06151 1983 40 WP MM ABBY 1983-08-19 12:00:00 MX 37.5182 144.755 990 tokyo main 302 302 _OOO__________ -1 37.7000 145.700 2 990 0 0 0 37.5000 143.700 9 38 990 37.3000 144.900 TD 30 990 4 170
1983212N06151 1983 40 WP MM ABBY 1983-08-19 15:00:00 MX 37.2839 144.930 main 318 318 _PPP__________ -1 37.4022 145.864 2 990 0 0 37.1874 143.944 9 38 990 37.2401 145.035 TD 30 990 7 146
1983212N06151 1983 40 WP MM ABBY 1983-08-19 18:00:00 MX 36.9333 145.244 990 tokyo main 360 360 _OOO__________ -1 37.0000 146.000 2 990 0 0 0 36.8000 144.500 9 38 990 37.2000 145.200 TD 30 990 10 150
1983212N06151 1983 40 WP MM ABBY 1983-08-19 21:00:00 MX 36.4148 145.552 main 414 414 _PP___________ -1 36.5225 146.235 2 990 0 0 36.3070 144.870 9 38 990 TD 12 153
1983212N06151 1983 40 WP MM ABBY 1983-08-20 00:00:00 MX 35.9000 145.900 990 tokyo main 450 450 _OO___________ -1 36.0000 146.500 2 990 0 0 0 35.8000 145.300 9 38 990 12 147
1983212N06151 1983 40 WP MM ABBY 1983-08-20 03:00:00 MX 35.4391 146.336 main 488 488 _PP___________ -1 35.4775 146.750 2 990 0 0 35.4007 145.923 9 38 990 11 142
1983212N06151 1983 40 WP MM ABBY 1983-08-20 06:00:00 MX 35.0000 146.750 990 tokyo main 539 539 _OO___________ -1 35.0000 147.000 2 990 0 0 0 35.0000 146.500 9 38 990 10 147
1983212N06151 1983 40 WP MM ABBY 1983-08-20 09:00:00 MX 34.5672 147.037 main 566 566 _PP___________ -1 34.6198 147.234 2 990 0 0 34.5146 146.840 9 38 990 9 154
1983212N06151 1983 40 WP MM ABBY 1983-08-20 12:00:00 MX 34.1500 147.250 990 tokyo main 605 605 _OO___________ -1 34.3000 147.500 2 990 0 0 0 34.0000 147.000 9 38 990 9 160
1983212N06151 1983 40 WP MM ABBY 1983-08-20 15:00:00 MX 33.7310 147.394 main 633 633 _PP___________ -1 33.9999 147.827 2 992 0 0 33.4621 146.961 9 33 991 9 160
1983212N06151 1983 40 WP MM ABBY 1983-08-20 18:00:00 MX 33.3500 147.600 994 tokyo main 663 668 _OO___________ -1 33.7000 148.200 2 994 0 0 0 33.0000 147.000 9 29 992 9 144
1983212N06151 1983 40 WP MM ABBY 1983-08-20 21:00:00 MX 32.9978 148.021 main 716 716 _PP___________ -1 33.3051 148.616 2 996 0 0 32.6904 147.426 9 29 994 10 128
1983212N06151 1983 40 WP MM ABBY 1983-08-21 00:00:00 ET 32.7500 148.500 998 tokyo main 768 768 _OO___________ -1 33.0000 149.000 6 998 0 0 0 32.5000 148.000 9 29 996 8 115
1983212N06151 1983 40 WP MM ABBY 1983-08-21 03:00:00 ET 32.6660 148.886 main 806 806 _PP___________ -1 32.9473 149.272 6 999 0 0 32.3848 148.499 9 26 997 6 99
1983212N06151 1983 40 WP MM ABBY 1983-08-21 06:00:00 ET 32.6500 149.250 1000 tokyo main 839 839 _OO___________ -1 33.0000 149.500 6 1000 0 0 0 32.3000 149.000 9 23 998 6 101
1983212N06151 1983 40 WP MM ABBY 1983-08-21 09:00:00 ET 32.5487 149.637 main 874 874 _PP___________ -1 33.0000 149.750 6 1000 0 0 32.0975 149.523 9 23 999 6 103
1983212N06151 1983 40 WP MM ABBY 1983-08-21 12:00:00 ET 32.5000 150.000 1000 tokyo main 908 908 _OO___________ -1 33.0000 150.000 6 1000 0 0 0 32.0000 150.000 9 23 1000 6 85
1983212N06151 1983 40 WP MM ABBY 1983-08-21 15:00:00 ET 32.5949 150.326 main 929 929 _PP___________ -1 33.0000 150.250 6 1000 0 0 32.1899 150.402 9 23 1001 6 64
1983212N06151 1983 40 WP MM ABBY 1983-08-21 18:00:00 ET 32.7500 150.600 1000 tokyo main 946 946 _OO___________ -1 33.0000 150.500 6 1000 0 0 0 32.5000 150.700 9 23 1002 5 57
1983212N06151 1983 40 WP MM ABBY 1983-08-21 21:00:00 ET 32.8561 150.808 main 959 959 _PP___________ -1 32.9624 150.750 6 1001 0 0 32.7498 150.865 9 23 1002 4 53
1983212N06151 1983 40 WP MM ABBY 1983-08-22 00:00:00 ET 33.0000 151.000 1002 tokyo main 972 972 _OO___________ -1 33.0000 151.000 6 1002 0 0 0 33.0000 151.000 9 23 1002 5 44
1983212N06151 1983 40 WP MM ABBY 1983-08-22 03:00:00 ET 33.2312 151.242 main 982 982 _PP___________ -1 33.2125 151.250 6 1002 0 0 33.2500 151.235 9 23 1002 7 40
1983212N06151 1983 40 WP MM ABBY 1983-08-22 06:00:00 ET 33.5000 151.500 1002 tokyo main 998 998 _OO___________ -1 33.5000 151.500 6 1002 0 0 0 33.5000 151.500 9 23 1002 7 39
1983212N06151 1983 40 WP MM ABBY 1983-08-22 09:00:00 ET 33.7500 151.750 main 1018 1015 _PP___________ -1 33.7500 151.750 6 1002 0 0 33.7500 151.750 9 23 1002 7 40
1983212N06151 1983 40 WP MM ABBY 1983-08-22 12:00:00 ET 34.0000 152.000 1002 tokyo main 1027 1027 _OO___________ -1 34.0000 152.000 6 1002 0 0 0 34.0000 152.000 9 23 1002 7 40
1983212N06151 1983 40 WP MM ABBY 1983-08-22 15:00:00 ET 34.2500 152.250 main 1049 1047 _PP___________ -1 34.2500 152.250 6 1002 0 0 34.2500 152.250 9 21 1003 6 40
1983212N06151 1983 40 WP MM ABBY 1983-08-22 18:00:00 ET 34.5000 152.500 1002 tokyo main 1060 1060 _OO___________ -1 34.5000 152.500 6 1002 0 0 0 34.5000 152.500 9 19 1004 6 39
1983212N06151 1983 40 WP MM ABBY 1983-08-22 21:00:00 ET 34.7499 152.750 main 1083 1078 _PP___________ -1 34.7499 152.750 6 1002 0 0 34.7499 152.750 9 19 1004 6 39
1983212N06151 1983 40 WP MM ABBY 1983-08-23 00:00:00 ET 35.0000 153.000 1002 tokyo main 1083 1083 _OO___________ -1 35.0000 153.000 6 1002 0 0 0 35.0000 153.000 9 19 1004 6 39
1983212N06151 1983 40 WP MM ABBY 1983-08-23 03:00:00 ET 35.2500 153.250 main 1096 1090 _PP___________ -1 35.2500 153.250 6 1002 0 0 35.2500 153.250 9 19 1004 6 39
1983212N06151 1983 40 WP MM ABBY 1983-08-23 06:00:00 ET 35.5000 153.500 1002 tokyo main 1096 1084 _OO___________ -1 35.5000 153.500 6 1002 0 0 0 35.5000 153.500 9 19 1004 6 37
1983212N06151 1983 40 WP MM ABBY 1983-08-23 09:00:00 ET 35.7496 153.713 main 1089 1074 _PP___________ -1 35.7496 153.713 6 1003 0 0 35.7496 153.713 9 19 1004 6 39
1983212N06151 1983 40 WP MM ABBY 1983-08-23 12:00:00 ET 36.0000 154.000 1004 tokyo main 1080 1077 _OO___________ -1 36.0000 154.000 6 1004 0 0 0 36.0000 154.000 9 19 1004 8 50
1983212N06151 1983 40 WP MM ABBY 1983-08-23 15:00:00 ET 36.2502 154.462 main 1084 1084 _PP___________ -1 36.2502 154.462 6 1004 0 0 36.2502 154.462 9 19 1004 9 58
1983212N06151 1983 40 WP MM ABBY 1983-08-23 18:00:00 ET 36.5000 155.000 1004 tokyo main 1098 1094 _OO___________ -1 36.5000 155.000 6 1004 0 0 0 36.5000 155.000 9 19 1004 10 59
1983212N06151 1983 40 WP MM ABBY 1983-08-23 21:00:00 ET 36.7502 155.512 main 1091 1086 _PP___________ -1 36.7502 155.512 6 1004 0 0 36.7502 155.512 9 19 1004 9 58
1983212N06151 1983 40 WP MM ABBY 1983-08-24 00:00:00 ET 37.0000 156.000 1004 tokyo main 1090 _OO___________ -1 37.0000 156.000 6 1004 0 0 0 37.0000 156.000 9 19 1004 9 57

Digital Typhoon Data and Search

About IBTrACS Database

This database is a web-friendly format of International Best Track Archive for Climate Stewardship (IBTrACS), a global best track data archive curated by NOAA dating back to 1842.

Updated: 2021-12-03